KELP/ELP METAR and TAF weather

Enter ICAO airport designator
Station Type Date Time Source
KELP METAR 2019/12/12 11:51 UTC NOAA

KELP 121151Z 33003KT 5SM BR FEW000 03/02 A3020 RMK AO2 SLP207 BR FEW000 MTNS OBSCD SW-NW T00330022 10072 20028 53001


Station Type Date Time Source
KELP Decoded METAR 2019/12/12 11:51 UTC NOAA

EL PASO INTERNATIONAL AIRPORT , TX, United States (KELP) 31-49N 106-23W 1197M
Dec 12, 2019 - 06:51 AM EST / 2019.12.12 1151 UTC
Wind: from the NNW (330 degrees) at 3 MPH (3 KT):0
Visibility: 5 mile(s):0
Sky conditions: mostly clear
Weather: mist
Temperature: 37.9 F (3.3 C)
Dew Point: 36.0 F (2.2 C)
Relative Humidity: 92%
Pressure (altimeter): 30.2 in. Hg (1022 hPa)
Pressure tendency: 0.00 inches (0.1 hPa) higher than three hours ago
ob: KELP 121151Z 33003KT 5SM BR FEW000 03/02 A3020 RMK AO2 SLP207 BR FEW000 MTNS OBSCD SW-NW T00330022 10072 20028 53001
cycle: 12

Station Type Date Time Source
KELP TAF 2019/12/12 12:24 UTC NOAA

TAF KELP 121123Z 1212/1312 VRB04KT P6SM FEW014
TEMPO 1212/1215 1/2SM FG VV002
FM121600 29006KT P6SM SKC
FM130100 24005KT P6SM FEW250

Example: see airport list